createdAt,value
2018-09-21T00:00:17.892Z,29.3
2018-09-21T00:01:19.465Z,30.3
2018-09-21T00:02:21.014Z,29.8
2018-09-21T00:03:22.416Z,30.3
2018-09-21T00:04:23.981Z,29.8
2018-09-21T00:05:25.535Z,30.3
2018-09-21T00:06:27.118Z,30.3
2018-09-21T00:07:28.679Z,28.8
2018-09-21T00:08:30.265Z,29.8
2018-09-21T00:09:31.823Z,29.8
2018-09-21T00:10:33.395Z,29.8
2018-09-21T00:11:34.975Z,29.3
2018-09-21T00:12:36.540Z,29.8
2018-09-21T00:13:38.128Z,29.8
2018-09-21T00:14:39.668Z,29.8
2018-09-21T00:15:41.059Z,30.3
2018-09-21T00:16:42.650Z,29.8
2018-09-21T00:17:44.218Z,28.8
2018-09-21T00:18:45.784Z,29.8
2018-09-21T00:19:47.378Z,29.3
2018-09-21T00:20:48.771Z,29.3
2018-09-21T00:21:50.020Z,29.8
2018-09-21T00:22:51.260Z,29.3
2018-09-21T00:23:52.501Z,29.8
2018-09-21T00:24:54.069Z,29.8
2018-09-21T00:25:55.318Z,29.3
2018-09-21T00:26:56.890Z,29.3
2018-09-21T00:27:58.470Z,28.8
2018-09-21T00:29:00.018Z,28.8
2018-09-21T00:30:01.587Z,29.3
2018-09-21T00:31:03.158Z,28.8
2018-09-21T00:32:04.730Z,29.8
2018-09-21T00:33:06.304Z,29.3
2018-09-21T00:34:07.701Z,29.8
2018-09-21T00:35:09.269Z,28.3
2018-09-21T00:36:10.841Z,29.3
2018-09-21T00:37:12.437Z,29.3
2018-09-21T00:38:14.042Z,28.8
2018-09-21T00:39:15.465Z,29.3
2018-09-21T00:40:17.034Z,29.8
2018-09-21T00:41:18.604Z,28.8
2018-09-21T00:42:20.196Z,29.3
2018-09-21T00:43:21.758Z,29.3
2018-09-21T00:44:23.335Z,28.3
2018-09-21T00:45:24.924Z,28.8
2018-09-21T00:46:26.487Z,28.8
2018-09-21T00:47:28.055Z,29.3
2018-09-21T00:48:29.668Z,28.8
2018-09-21T00:49:31.068Z,28.8
2018-09-21T00:50:32.479Z,28.8
2018-09-21T00:51:34.059Z,29.3
2018-09-21T00:52:35.657Z,29.3
2018-09-21T00:53:37.242Z,28.8
2018-09-21T00:54:38.846Z,29.3
2018-09-21T00:55:40.414Z,28.8
2018-09-21T00:56:41.806Z,27.9
2018-09-21T00:57:43.031Z,29.3
2018-09-21T00:58:44.247Z,29.3
2018-09-21T00:59:45.817Z,29.3
2018-09-21T01:00:47.386Z,28.8
2018-09-21T01:01:48.958Z,29.3
2018-09-21T01:02:50.517Z,29.3
2018-09-21T01:03:52.312Z,28.8
2018-09-21T01:04:53.878Z,28.8
2018-09-21T01:05:55.436Z,28.3
2018-09-21T01:06:56.898Z,29.3
2018-09-21T01:07:58.459Z,29.3
2018-09-21T01:09:00.024Z,29.3
2018-09-21T01:10:01.607Z,29.3
2018-09-21T01:11:03.158Z,29.8
2018-09-21T01:12:04.730Z,29.3
2018-09-21T01:13:06.313Z,29.3
2018-09-21T01:14:07.881Z,29.8
2018-09-21T01:15:09.474Z,29.8
2018-09-21T01:16:11.046Z,29.3
2018-09-21T01:17:12.632Z,29.8
2018-09-21T01:18:14.215Z,29.8
2018-09-21T01:19:15.777Z,29.3
2018-09-21T01:20:17.344Z,29.8
2018-09-21T01:21:18.902Z,29.8
2018-09-21T01:22:20.462Z,29.3
2018-09-21T01:23:21.717Z,29.3
2018-09-21T01:24:23.326Z,29.8
2018-09-21T01:25:24.899Z,29.3
2018-09-21T01:26:26.449Z,29.8
2018-09-21T01:27:28.025Z,29.8
2018-09-21T01:28:29.578Z,30.3
2018-09-21T01:29:31.161Z,30.3
2018-09-21T01:30:32.755Z,30.3
2018-09-21T01:31:34.314Z,30.3
2018-09-21T01:32:36.032Z,30.3
2018-09-21T01:33:37.716Z,30.3
2018-09-21T01:34:39.323Z,29.8
2018-09-21T01:35:40.907Z,30.3
2018-09-21T01:36:42.306Z,30.8
2018-09-21T01:37:43.882Z,30.8
2018-09-21T01:38:45.451Z,30.8
2018-09-21T01:39:47.017Z,30.8
2018-09-21T01:40:48.250Z,31.8
2018-09-21T01:41:49.830Z,31.3
2018-09-21T01:42:51.400Z,30.8
2018-09-21T01:43:53.178Z,31.3
2018-09-21T01:44:54.750Z,31.8
2018-09-21T01:45:56.497Z,31.8
2018-09-21T01:46:58.057Z,31.8
2018-09-21T01:47:59.626Z,32.3
2018-09-21T01:49:01.194Z,32.3
2018-09-21T01:50:02.751Z,32.3
2018-09-21T01:51:04.335Z,31.8
2018-09-21T01:52:05.896Z,32.7
2018-09-21T01:53:07.507Z,32.3
2018-09-21T01:54:09.058Z,31.8
2018-09-21T01:55:10.647Z,31.8
2018-09-21T01:56:12.206Z,31.8
2018-09-21T01:57:13.765Z,32.7
2018-09-21T01:58:15.159Z,32.3
2018-09-21T01:59:16.739Z,31.8
2018-09-21T02:00:18.309Z,32.3
2018-09-21T02:01:19.880Z,32.7
2018-09-21T02:02:21.440Z,32.3
2018-09-21T02:03:23.007Z,33.2
2018-09-21T02:04:24.567Z,32.7
2018-09-21T02:05:26.129Z,32.3
2018-09-21T02:06:27.701Z,32.7
2018-09-21T02:07:29.272Z,33.2
2018-09-21T02:08:30.877Z,32.7
2018-09-21T02:09:32.834Z,32.3
2018-09-21T02:10:34.318Z,32.7
2018-09-21T02:11:35.563Z,32.3
2018-09-21T02:12:37.116Z,33.7
2018-09-21T02:13:38.695Z,33.2
2018-09-21T02:14:39.926Z,33.2
2018-09-21T02:15:41.508Z,33.2
2018-09-21T02:16:43.066Z,32.3
2018-09-21T02:17:44.985Z,32.3
2018-09-21T02:18:46.669Z,32.3
2018-09-21T02:19:48.239Z,33.2
2018-09-21T02:20:49.800Z,33.2
2018-09-21T02:21:51.336Z,32.7
2018-09-21T02:22:52.894Z,33.7
2018-09-21T02:23:54.457Z,32.7
2018-09-21T02:24:55.846Z,33.2
2018-09-21T02:25:57.441Z,32.3
2018-09-21T02:26:58.843Z,32.3
2018-09-21T02:28:00.404Z,32.7
2018-09-21T02:29:01.988Z,32.7
2018-09-21T02:30:03.557Z,31.8
2018-09-21T02:31:05.136Z,32.3
2018-09-21T02:32:06.701Z,32.7
2018-09-21T02:33:08.262Z,31.8
2018-09-21T02:34:09.829Z,32.7
2018-09-21T02:35:11.375Z,32.3
2018-09-21T02:36:12.960Z,32.7
2018-09-21T02:37:14.516Z,32.3
2018-09-21T02:38:16.115Z,32.7
2018-09-21T02:39:17.695Z,31.8
2018-09-21T02:40:19.095Z,32.3
2018-09-21T02:41:21.010Z,31.8
2018-09-21T02:42:22.724Z,32.7
2018-09-21T02:43:24.307Z,32.3
2018-09-21T02:44:25.867Z,32.3
2018-09-21T02:45:27.446Z,32.3
2018-09-21T02:46:29.001Z,31.8
2018-09-21T02:47:30.551Z,31.8
2018-09-21T02:48:32.253Z,31.8
2018-09-21T02:49:33.645Z,32.3
2018-09-21T02:50:35.236Z,31.8
2018-09-21T02:51:36.630Z,31.8
2018-09-21T02:52:38.203Z,32.7
2018-09-21T02:53:39.776Z,31.8
2018-09-21T02:54:41.333Z,32.3
2018-09-21T02:55:42.909Z,32.3
2018-09-21T02:56:44.482Z,31.8
2018-09-21T02:57:46.060Z,30.8
2018-09-21T02:58:47.469Z,31.8
2018-09-21T02:59:49.030Z,31.3
2018-09-21T03:00:51.493Z,31.8
2018-09-21T03:01:53.594Z,31.8
2018-09-21T03:02:55.170Z,31.3
2018-09-21T03:03:56.733Z,31.3
2018-09-21T03:04:58.302Z,31.8
2018-09-21T03:05:59.709Z,32.3
2018-09-21T03:07:01.273Z,31.8
2018-09-21T03:08:02.865Z,31.8
2018-09-21T03:09:04.410Z,31.8
2018-09-21T03:10:05.996Z,32.3
2018-09-21T03:11:07.405Z,30.8
2018-09-21T03:12:08.993Z,31.8
2018-09-21T03:13:11.071Z,31.8
2018-09-21T03:14:12.868Z,32.3
2018-09-21T03:15:14.496Z,31.8
2018-09-21T03:16:16.077Z,32.3
2018-09-21T03:17:17.653Z,32.3
2018-09-21T03:18:19.060Z,32.3
2018-09-21T03:19:20.618Z,32.7
2018-09-21T03:20:22.190Z,31.8
2018-09-21T03:21:23.739Z,32.3
2018-09-21T03:22:25.320Z,32.7
2018-09-21T03:23:26.888Z,31.8
2018-09-21T03:24:28.462Z,31.8
2018-09-21T03:25:30.026Z,32.3
2018-09-21T03:26:31.606Z,31.8
2018-09-21T03:27:33.183Z,32.3
2018-09-21T03:28:34.748Z,31.8
2018-09-21T03:29:36.311Z,32.3
2018-09-21T03:30:37.878Z,30.8
2018-09-21T03:31:39.288Z,31.8
2018-09-21T03:32:40.846Z,31.8
2018-09-21T03:33:42.397Z,31.8
2018-09-21T03:34:44.000Z,31.8
2018-09-21T03:35:45.570Z,31.8
2018-09-21T03:36:47.137Z,31.8
2018-09-21T03:37:48.537Z,31.3
2018-09-21T03:38:49.928Z,31.8
2018-09-21T03:39:51.499Z,30.8
2018-09-21T03:40:53.061Z,32.3
2018-09-21T03:41:54.611Z,31.8
2018-09-21T03:42:56.157Z,32.7
2018-09-21T03:43:57.557Z,32.3
2018-09-21T03:44:59.315Z,32.3
2018-09-21T03:46:00.893Z,32.7
2018-09-21T03:47:02.458Z,32.3
2018-09-21T03:48:04.028Z,32.7
2018-09-21T03:49:05.439Z,32.7
2018-09-21T03:50:07.013Z,33.2
2018-09-21T03:51:08.586Z,32.7
2018-09-21T03:52:10.169Z,32.7
2018-09-21T03:53:11.775Z,32.7
2018-09-21T03:54:13.328Z,32.7
2018-09-21T03:55:15.123Z,33.7
2018-09-21T03:56:16.827Z,33.2
2018-09-21T03:57:18.439Z,33.7
2018-09-21T03:58:20.042Z,32.7
2018-09-21T03:59:21.672Z,33.2
2018-09-21T04:00:23.279Z,32.7
2018-09-21T04:01:24.896Z,33.7
2018-09-21T04:02:26.503Z,33.2
2018-09-21T04:03:28.102Z,33.2
2018-09-21T04:04:29.692Z,33.2
2018-09-21T04:05:31.278Z,33.7
2018-09-21T04:06:32.847Z,33.2
2018-09-21T04:07:34.421Z,34.2
2018-09-21T04:08:35.873Z,33.2
2018-09-21T04:09:37.466Z,34.2
2018-09-21T04:10:39.026Z,33.7
2018-09-21T04:11:40.588Z,34.2
2018-09-21T04:12:42.173Z,33.7
2018-09-21T04:13:43.756Z,33.7
2018-09-21T04:14:45.321Z,33.7
2018-09-21T04:15:46.877Z,33.7
2018-09-21T04:16:48.303Z,33.7
2018-09-21T04:17:49.879Z,33.7
2018-09-21T04:18:51.276Z,34.2
2018-09-21T04:19:52.848Z,33.7
2018-09-21T04:20:54.419Z,33.7
2018-09-21T04:21:55.975Z,33.7
2018-09-21T04:22:57.755Z,33.7
2018-09-21T04:23:59.424Z,34.2
2018-09-21T04:25:00.981Z,34.7
2018-09-21T04:26:02.556Z,34.7
2018-09-21T04:27:04.171Z,33.2
2018-09-21T04:28:05.587Z,34.2
2018-09-21T04:29:07.158Z,33.7
2018-09-21T04:30:08.750Z,33.7
2018-09-21T04:31:10.311Z,33.7
2018-09-21T04:32:11.876Z,34.7
2018-09-21T04:33:13.445Z,34.2
2018-09-21T04:34:15.006Z,34.2
2018-09-21T04:35:16.598Z,33.2
2018-09-21T04:36:18.482Z,33.2
2018-09-21T04:37:20.062Z,34.2
2018-09-21T04:38:21.639Z,33.7
2018-09-21T04:39:23.210Z,34.7
2018-09-21T04:40:24.596Z,33.7
2018-09-21T04:41:26.165Z,34.2
2018-09-21T04:42:27.945Z,34.2
2018-09-21T04:43:29.514Z,34.2
2018-09-21T04:44:30.908Z,33.7
2018-09-21T04:45:32.495Z,34.2
2018-09-21T04:46:34.070Z,34.7
2018-09-21T04:47:35.486Z,33.7
2018-09-21T04:48:36.878Z,33.7
2018-09-21T04:49:38.459Z,34.2
2018-09-21T04:50:40.032Z,34.2
2018-09-21T04:51:41.601Z,35.2
2018-09-21T04:52:43.166Z,34.2
2018-09-21T04:53:44.557Z,34.2
2018-09-21T04:54:46.131Z,33.7
2018-09-21T04:55:47.699Z,33.7
2018-09-21T04:56:49.265Z,34.7
2018-09-21T04:57:50.834Z,34.2
2018-09-21T04:58:52.417Z,33.2
2018-09-21T04:59:53.988Z,33.7
2018-09-21T05:00:55.380Z,33.7
2018-09-21T05:01:56.928Z,34.2
2018-09-21T05:02:58.477Z,33.7
2018-09-21T05:03:59.875Z,34.2
2018-09-21T05:05:01.453Z,33.7
2018-09-21T05:06:03.021Z,33.2
2018-09-21T05:07:04.579Z,33.7
2018-09-21T05:08:06.139Z,33.2
2018-09-21T05:09:07.743Z,33.2
2018-09-21T05:10:09.302Z,33.7
2018-09-21T05:11:10.857Z,34.2
2018-09-21T05:12:12.418Z,33.7
2018-09-21T05:13:13.996Z,34.2
2018-09-21T05:14:15.593Z,33.7
2018-09-21T05:15:16.997Z,33.2
2018-09-21T05:16:18.436Z,33.7
2018-09-21T05:17:20.002Z,33.7
2018-09-21T05:18:21.386Z,33.7
2018-09-21T05:19:22.807Z,33.7
2018-09-21T05:20:24.398Z,33.7
2018-09-21T05:21:25.979Z,33.7
2018-09-21T05:22:27.577Z,33.7
2018-09-21T05:23:29.132Z,33.7
2018-09-21T05:24:30.682Z,33.7
2018-09-21T05:25:32.258Z,33.7
2018-09-21T05:26:33.824Z,33.7
2018-09-21T05:27:35.820Z,33.2
2018-09-21T05:28:37.527Z,33.2
2018-09-21T05:29:39.107Z,32.7
2018-09-21T05:30:40.681Z,33.7
2018-09-21T05:31:42.428Z,33.2
2018-09-21T05:32:44.126Z,32.3
2018-09-21T05:33:45.730Z,32.7
2018-09-21T05:34:48.781Z,32.3
2018-09-21T05:35:50.767Z,32.7
2018-09-21T05:36:52.375Z,32.7
2018-09-21T05:37:53.936Z,32.7
2018-09-21T05:38:55.519Z,32.7
2018-09-21T05:39:57.100Z,32.7
2018-09-21T05:40:58.701Z,32.7
2018-09-21T05:42:00.290Z,32.7
2018-09-21T05:43:01.859Z,33.7
2018-09-21T05:44:03.435Z,33.2
2018-09-21T05:45:05.014Z,33.7
2018-09-21T05:46:06.561Z,33.2
2018-09-21T05:47:08.420Z,33.2
2018-09-21T05:48:09.968Z,33.7
2018-09-21T05:49:11.543Z,33.7
2018-09-21T05:50:12.943Z,33.2
2018-09-21T05:51:14.509Z,33.7
2018-09-21T05:52:16.090Z,33.2
2018-09-21T05:53:17.494Z,34.2
2018-09-21T05:54:18.895Z,33.7
2018-09-21T05:55:20.517Z,32.7
2018-09-21T05:56:22.113Z,33.7
2018-09-21T05:57:23.695Z,33.7
2018-09-21T05:58:25.263Z,34.2
2018-09-21T05:59:26.852Z,34.7
2018-09-21T06:00:28.438Z,33.2
2018-09-21T06:01:30.049Z,34.2
2018-09-21T06:02:31.943Z,33.7
2018-09-21T06:03:33.542Z,34.7
2018-09-21T06:04:35.104Z,34.2
2018-09-21T06:05:36.677Z,34.2
2018-09-21T06:06:38.242Z,34.2
2018-09-21T06:07:39.999Z,34.2
2018-09-21T06:08:41.594Z,33.7
2018-09-21T06:09:43.157Z,34.2
2018-09-21T06:10:44.722Z,33.2
2018-09-21T06:11:46.284Z,33.7
2018-09-21T06:12:47.856Z,34.7
2018-09-21T06:13:50.179Z,33.7
2018-09-21T06:14:51.898Z,34.7
2018-09-21T06:15:53.486Z,34.7
2018-09-21T06:16:55.059Z,34.7
2018-09-21T06:17:56.627Z,34.7
2018-09-21T06:18:58.070Z,34.2
2018-09-21T06:20:13.746Z,34.2
2018-09-21T06:21:15.912Z,33.7
2018-09-21T06:22:17.732Z,34.2
2018-09-21T06:23:19.348Z,34.2
2018-09-21T06:24:20.903Z,34.2
2018-09-21T06:25:22.505Z,34.7
2018-09-21T06:26:24.102Z,34.2
2018-09-21T06:27:25.680Z,34.2
2018-09-21T06:28:27.248Z,34.2
2018-09-21T06:29:28.820Z,34.2
2018-09-21T06:30:30.402Z,34.7
2018-09-21T06:31:31.985Z,34.7
2018-09-21T06:32:33.568Z,34.7
2018-09-21T06:33:35.167Z,35.2
2018-09-21T06:34:36.751Z,34.2
2018-09-21T06:35:38.320Z,34.2
2018-09-21T06:36:39.714Z,34.2
2018-09-21T06:37:41.289Z,34.2
2018-09-21T06:38:42.693Z,34.7
2018-09-21T06:39:44.257Z,34.2
2018-09-21T06:40:45.863Z,34.7
2018-09-21T06:41:47.296Z,34.2
2018-09-21T06:42:48.897Z,34.7
2018-09-21T06:43:50.514Z,34.2
2018-09-21T06:44:52.086Z,33.7
2018-09-21T06:45:53.694Z,34.7
2018-09-21T06:46:55.262Z,34.2
2018-09-21T06:47:56.682Z,34.2
2018-09-21T06:48:58.259Z,34.2
2018-09-21T06:50:00.213Z,34.2
2018-09-21T06:51:01.827Z,34.2
2018-09-21T06:52:03.416Z,34.7
2018-09-21T06:53:04.998Z,34.2
2018-09-21T06:54:06.579Z,34.2
2018-09-21T06:55:08.163Z,34.2
2018-09-21T06:56:09.761Z,34.7
2018-09-21T06:57:11.350Z,34.2
2018-09-21T06:58:12.938Z,34.2
2018-09-21T06:59:14.517Z,34.7
2018-09-21T07:00:16.197Z,34.2
2018-09-21T07:01:18.100Z,34.2
2018-09-21T07:02:19.764Z,34.2
2018-09-21T07:03:21.392Z,34.2
2018-09-21T07:04:22.970Z,33.7
2018-09-21T07:05:24.398Z,33.7
2018-09-21T07:06:25.815Z,33.7
2018-09-21T07:07:27.405Z,33.7
2018-09-21T07:08:28.989Z,33.7
2018-09-21T07:09:30.580Z,34.2
2018-09-21T07:10:32.172Z,34.2
2018-09-21T07:11:33.751Z,33.2
2018-09-21T07:12:35.337Z,33.2
2018-09-21T07:13:36.900Z,33.7
2018-09-21T07:14:38.304Z,33.7
2018-09-21T07:15:39.729Z,34.2
2018-09-21T07:16:41.149Z,33.7
2018-09-21T07:17:42.579Z,33.2
2018-09-21T07:18:44.172Z,33.2
2018-09-21T07:19:45.769Z,32.7
2018-09-21T07:20:47.319Z,32.7
2018-09-21T07:21:48.888Z,32.7
2018-09-21T07:22:50.454Z,32.7
2018-09-21T07:23:52.011Z,33.7
2018-09-21T07:24:53.460Z,33.2
2018-09-21T07:25:55.070Z,34.2
2018-09-21T07:26:56.650Z,39.6
2018-09-21T07:27:58.216Z,41.5
2018-09-21T07:28:59.639Z,42.5
2018-09-21T07:30:01.221Z,43.5
2018-09-21T07:31:03.296Z,43.5
2018-09-21T07:32:04.930Z,44.5
2018-09-21T07:33:06.518Z,44
2018-09-21T07:34:08.102Z,43.5
2018-09-21T07:35:09.662Z,43
2018-09-21T07:36:11.239Z,43
2018-09-21T07:37:12.811Z,42.5
2018-09-21T07:38:14.222Z,42.5
2018-09-21T07:39:15.797Z,42
2018-09-21T07:40:17.397Z,42
2018-09-21T07:41:18.961Z,42
2018-09-21T07:42:20.549Z,41.5
2018-09-21T07:43:22.143Z,42
2018-09-21T07:44:23.681Z,41.5
2018-09-21T07:45:25.124Z,42
2018-09-21T07:46:26.640Z,40.6
2018-09-21T07:47:28.041Z,41.5
2018-09-21T07:48:29.602Z,40.6
2018-09-21T07:49:31.194Z,41.5
2018-09-21T07:50:33.193Z,40.6
2018-09-21T07:51:34.960Z,40.6
2018-09-21T07:52:36.528Z,40.1
2018-09-21T07:53:37.924Z,40.6
2018-09-21T07:54:39.500Z,40.1
2018-09-21T07:55:41.092Z,40.1
2018-09-21T07:56:42.697Z,40.1
2018-09-21T07:57:44.166Z,40.1
2018-09-21T07:58:45.762Z,39.6
2018-09-21T07:59:47.339Z,40.1
2018-09-21T08:00:48.922Z,39.1
2018-09-21T08:01:50.502Z,39.6
2018-09-21T08:02:51.925Z,39.1
2018-09-21T08:03:53.502Z,39.1
2018-09-21T08:04:55.070Z,39.6
2018-09-21T08:05:56.669Z,38.6
2018-09-21T08:06:58.267Z,39.1
2018-09-21T08:07:59.837Z,39.1
2018-09-21T08:09:01.224Z,39.1
2018-09-21T08:10:02.812Z,39.1
2018-09-21T08:11:04.391Z,38.6
2018-09-21T08:12:05.958Z,38.6
2018-09-21T08:13:07.534Z,38.6
2018-09-21T08:14:08.930Z,37.6
2018-09-21T08:15:10.514Z,38.6
2018-09-21T08:16:12.081Z,38.6
2018-09-21T08:17:13.655Z,38.1
2018-09-21T08:18:15.228Z,37.6
2018-09-21T08:19:16.906Z,38.1
2018-09-21T08:20:18.543Z,38.1
2018-09-21T08:21:20.098Z,37.1
2018-09-21T08:22:21.686Z,37.6
2018-09-21T08:23:23.258Z,37.6
2018-09-21T08:24:24.813Z,37.6
2018-09-21T08:25:26.407Z,37.6
2018-09-21T08:26:28.204Z,36.7
2018-09-21T08:27:29.798Z,37.1
2018-09-21T08:28:31.197Z,36.7
2018-09-21T08:29:32.770Z,37.6
2018-09-21T08:30:34.350Z,38.1
2018-09-21T08:31:36.459Z,36.7
2018-09-21T08:32:38.018Z,37.6
2018-09-21T08:33:39.596Z,37.1
2018-09-21T08:34:41.441Z,37.1
2018-09-21T08:35:43.062Z,37.1
2018-09-21T08:36:44.641Z,36.2
2018-09-21T08:37:46.224Z,36.2
2018-09-21T08:38:47.644Z,36.7
2018-09-21T08:39:49.223Z,36.7
2018-09-21T08:40:50.652Z,36.2
2018-09-21T08:41:52.235Z,37.1
2018-09-21T08:42:54.162Z,36.7
2018-09-21T08:43:55.860Z,36.2
2018-09-21T08:44:57.469Z,36.7
2018-09-21T08:45:59.054Z,36.7
2018-09-21T08:47:00.656Z,36.2
2018-09-21T08:48:02.683Z,35.7
2018-09-21T08:49:04.238Z,36.2
2018-09-21T08:50:05.799Z,36.7
2018-09-21T08:51:07.368Z,36.2
2018-09-21T08:52:08.934Z,36.2
2018-09-21T08:53:10.508Z,36.2
2018-09-21T08:54:12.067Z,36.2
2018-09-21T08:55:13.659Z,35.7
2018-09-21T08:56:15.237Z,35.7
2018-09-21T08:57:16.639Z,35.7
2018-09-21T08:58:18.058Z,35.7
2018-09-21T08:59:19.478Z,35.7
2018-09-21T09:00:21.064Z,36.2
2018-09-21T09:01:22.647Z,36.2
2018-09-21T09:02:24.270Z,36.2
2018-09-21T09:03:26.453Z,35.7
2018-09-21T09:04:28.170Z,35.2
2018-09-21T09:05:29.596Z,35.7
2018-09-21T09:06:31.169Z,34.7
2018-09-21T09:07:32.781Z,35.7
2018-09-21T09:08:34.343Z,35.2
2018-09-21T09:09:35.913Z,35.2
2018-09-21T09:10:37.516Z,34.7
2018-09-21T09:11:39.092Z,34.7
2018-09-21T09:12:40.653Z,34.7
2018-09-21T09:13:42.240Z,35.2
2018-09-21T09:14:43.819Z,35.7
2018-09-21T09:15:45.411Z,34.7
2018-09-21T09:16:46.993Z,34.7
2018-09-21T09:17:48.623Z,35.2
2018-09-21T09:18:50.240Z,34.7
2018-09-21T09:19:51.816Z,34.7
2018-09-21T09:20:53.397Z,35.2
2018-09-21T09:21:54.969Z,34.7
2018-09-21T09:22:56.545Z,35.2
2018-09-21T09:23:58.127Z,34.7
2018-09-21T09:24:59.752Z,35.2
2018-09-21T09:26:01.482Z,35.2
2018-09-21T09:27:03.058Z,35.2
2018-09-21T09:28:04.642Z,35.7
2018-09-21T09:29:06.298Z,34.7
2018-09-21T09:30:08.381Z,35.2
2018-09-21T09:31:10.274Z,35.2
2018-09-21T09:32:11.515Z,34.2
2018-09-21T09:33:13.130Z,34.7
2018-09-21T09:34:14.688Z,34.2
2018-09-21T09:35:16.265Z,35.2
2018-09-21T09:36:17.835Z,34.7
2018-09-21T09:37:19.411Z,34.2
2018-09-21T09:38:20.984Z,34.7
2018-09-21T09:39:22.576Z,34.7
2018-09-21T09:40:24.166Z,34.2
2018-09-21T09:41:25.739Z,34.7
2018-09-21T09:42:27.168Z,34.2
2018-09-21T09:43:29.434Z,34.2
2018-09-21T09:44:30.853Z,34.7
2018-09-21T09:45:32.455Z,34.7
2018-09-21T09:46:34.068Z,34.7
2018-09-21T09:47:35.637Z,34.2
2018-09-21T09:48:38.267Z,34.2
2018-09-21T09:49:40.143Z,34.7
2018-09-21T09:50:41.778Z,34.2
2018-09-21T09:51:43.025Z,33.7
2018-09-21T09:52:44.590Z,34.2
2018-09-21T09:53:46.003Z,34.2
2018-09-21T09:54:47.729Z,34.2
2018-09-21T09:55:49.460Z,33.7
2018-09-21T09:56:51.036Z,33.7
2018-09-21T09:57:52.596Z,33.7
2018-09-21T09:58:54.177Z,33.7
2018-09-21T09:59:55.750Z,33.7
2018-09-21T10:00:57.337Z,34.2
2018-09-21T10:01:58.932Z,34.2
2018-09-21T10:03:00.483Z,34.2
2018-09-21T10:04:02.575Z,34.2
2018-09-21T10:05:04.398Z,33.2
2018-09-21T10:06:06.007Z,34.2
2018-09-21T10:07:07.572Z,34.2
2018-09-21T10:08:09.167Z,33.2
2018-09-21T10:09:10.757Z,33.7
2018-09-21T10:10:12.554Z,33.2
2018-09-21T10:11:14.039Z,33.2
2018-09-21T10:12:15.599Z,33.2
2018-09-21T10:13:17.017Z,32.7
2018-09-21T10:14:18.608Z,33.2
2018-09-21T10:15:20.196Z,33.2
2018-09-21T10:16:22.093Z,32.7
2018-09-21T10:17:23.808Z,32.7
2018-09-21T10:18:25.427Z,33.2
2018-09-21T10:19:27.035Z,33.2
2018-09-21T10:20:28.520Z,33.2
2018-09-21T10:21:29.969Z,33.2
2018-09-21T10:22:31.548Z,33.2
2018-09-21T10:23:33.112Z,32.7
2018-09-21T10:24:34.637Z,33.2
2018-09-21T10:25:36.309Z,33.2
2018-09-21T10:26:38.029Z,32.3
2018-09-21T10:27:40.659Z,32.7
2018-09-21T10:28:44.607Z,33.2
2018-09-21T10:29:46.815Z,32.7
2018-09-21T10:30:48.392Z,32.3
2018-09-21T10:31:49.988Z,31.8
2018-09-21T10:32:51.577Z,33.7
2018-09-21T10:33:54.243Z,32.3
2018-09-21T10:34:55.825Z,32.3
2018-09-21T10:35:57.381Z,31.8
2018-09-21T10:36:59.076Z,32.3
2018-09-21T10:38:00.793Z,33.2
2018-09-21T10:39:02.412Z,33.2
2018-09-21T10:40:05.199Z,32.7
2018-09-21T10:41:07.005Z,32.7
2018-09-21T10:42:08.626Z,32.3
2018-09-21T10:43:10.805Z,32.3
2018-09-21T10:44:12.662Z,31.8
2018-09-21T10:45:14.440Z,31.8
2018-09-21T10:46:16.104Z,31.8
2018-09-21T10:47:17.703Z,32.3
2018-09-21T10:48:19.300Z,31.3
2018-09-21T10:49:20.754Z,31.8
2018-09-21T10:50:22.336Z,31.8
2018-09-21T10:51:23.888Z,32.3
2018-09-21T10:52:25.477Z,32.7
2018-09-21T10:53:27.059Z,31.8
2018-09-21T10:54:28.679Z,31.3
2018-09-21T10:55:30.260Z,31.3
2018-09-21T10:56:31.859Z,31.3
2018-09-21T10:57:33.429Z,31.3
2018-09-21T10:58:35.300Z,31.8
2018-09-21T10:59:37.017Z,31.3
2018-09-21T11:00:39.141Z,31.8
2018-09-21T11:01:40.959Z,31.8
2018-09-21T11:02:42.542Z,30.8
2018-09-21T11:03:44.204Z,31.3
2018-09-21T11:04:45.811Z,30.8
2018-09-21T11:05:47.388Z,31.3
2018-09-21T11:06:48.816Z,31.3
2018-09-21T11:07:50.407Z,31.8
2018-09-21T11:08:51.971Z,31.3
2018-09-21T11:09:53.503Z,32.3
2018-09-21T11:10:55.197Z,31.8
2018-09-21T11:11:56.798Z,31.3
2018-09-21T11:12:58.758Z,31.8
2018-09-21T11:14:00.446Z,31.8
2018-09-21T11:15:01.844Z,31.8
2018-09-21T11:16:03.441Z,31.8
2018-09-21T11:17:05.025Z,32.3
2018-09-21T11:18:06.638Z,32.3
2018-09-21T11:19:08.236Z,32.3
2018-09-21T11:20:09.814Z,32.3
2018-09-21T11:21:11.387Z,32.3
2018-09-21T11:22:12.980Z,32.3
2018-09-21T11:23:14.573Z,31.8
2018-09-21T11:24:15.978Z,32.7
2018-09-21T11:25:17.560Z,31.8
2018-09-21T11:26:19.162Z,32.3
2018-09-21T11:27:20.777Z,31.8
2018-09-21T11:28:22.357Z,32.7
2018-09-21T11:29:23.640Z,32.7
2018-09-21T11:30:25.217Z,31.8
2018-09-21T11:31:26.806Z,32.3
2018-09-21T11:32:28.374Z,32.3
2018-09-21T11:33:29.813Z,32.3
2018-09-21T11:34:31.383Z,32.3
2018-09-21T11:35:32.968Z,32.3
2018-09-21T11:36:34.395Z,32.7
2018-09-21T11:37:35.982Z,32.3
2018-09-21T11:38:37.582Z,32.3
2018-09-21T11:39:39.015Z,32.7
2018-09-21T11:40:40.601Z,32.3
2018-09-21T11:41:42.203Z,32.3
2018-09-21T11:42:43.777Z,32.3
2018-09-21T11:43:45.366Z,32.3
2018-09-21T11:44:46.962Z,32.7
2018-09-21T11:45:48.525Z,32.7
2018-09-21T11:46:50.727Z,32.3
2018-09-21T11:47:52.828Z,32.3
2018-09-21T11:48:54.253Z,31.8
2018-09-21T11:49:55.837Z,32.3
2018-09-21T11:50:57.418Z,32.3
2018-09-21T11:51:58.812Z,31.8
2018-09-21T11:53:00.400Z,32.3
2018-09-21T11:54:02.036Z,32.3
2018-09-21T11:55:03.493Z,32.3
2018-09-21T11:56:05.085Z,32.7
2018-09-21T11:57:06.674Z,32.3
2018-09-21T11:58:08.600Z,32.3
2018-09-21T11:59:10.239Z,32.3
2018-09-21T12:00:11.501Z,31.8
2018-09-21T12:01:13.064Z,32.3
2018-09-21T12:02:14.499Z,32.3
2018-09-21T12:03:16.106Z,31.8
2018-09-21T12:04:17.555Z,31.8
2018-09-21T12:05:19.132Z,32.7
2018-09-21T12:06:20.725Z,31.8
2018-09-21T12:07:22.307Z,32.3
2018-09-21T12:08:23.734Z,31.8
2018-09-21T12:09:25.345Z,31.8
2018-09-21T12:10:27.010Z,31.8
2018-09-21T12:11:28.733Z,31.8
2018-09-21T12:12:30.322Z,31.3
2018-09-21T12:13:31.902Z,32.7
2018-09-21T12:14:33.455Z,32.3
2018-09-21T12:15:35.040Z,32.3
2018-09-21T12:16:36.797Z,31.8
2018-09-21T12:17:38.545Z,32.3
2018-09-21T12:18:40.172Z,31.8
2018-09-21T12:19:41.779Z,32.3
2018-09-21T12:20:43.364Z,32.3
2018-09-21T12:21:44.959Z,32.3
2018-09-21T12:22:47.001Z,31.8
2018-09-21T12:23:48.650Z,31.8
2018-09-21T12:24:50.251Z,31.8
2018-09-21T12:26:06.522Z,31.8
2018-09-21T12:27:08.121Z,31.3
2018-09-21T12:28:09.528Z,31.3
2018-09-21T12:29:11.110Z,31.3
2018-09-21T12:30:12.940Z,31.3
2018-09-21T12:31:14.624Z,31.8
2018-09-21T12:32:16.042Z,31.3
2018-09-21T12:33:17.597Z,31.8
2018-09-21T12:34:19.210Z,31.3
2018-09-21T12:35:20.776Z,30.8
2018-09-21T12:36:22.795Z,31.8
2018-09-21T12:37:24.550Z,31.3
2018-09-21T12:38:26.227Z,31.8
2018-09-21T12:39:27.791Z,31.8
2018-09-21T12:40:29.374Z,31.3
2018-09-21T12:41:30.942Z,31.8
2018-09-21T12:42:32.964Z,31.3
2018-09-21T12:43:34.733Z,30.3
2018-09-21T12:44:36.697Z,31.3
2018-09-21T12:45:38.467Z,30.8
2018-09-21T12:46:40.081Z,31.3
2018-09-21T12:47:41.486Z,30.8
2018-09-21T12:48:43.051Z,30.8
2018-09-21T12:49:44.622Z,31.8
2018-09-21T12:50:46.522Z,30.8
2018-09-21T12:51:48.397Z,31.3
2018-09-21T12:52:49.656Z,31.3
2018-09-21T12:53:51.220Z,30.8
2018-09-21T12:54:52.818Z,31.3
2018-09-21T12:55:54.413Z,31.3
2018-09-21T12:56:55.986Z,30.8
2018-09-21T12:57:59.055Z,30.3
2018-09-21T12:59:01.054Z,30.8
2018-09-21T13:00:02.661Z,31.3
2018-09-21T13:01:04.239Z,31.3
2018-09-21T13:02:05.816Z,30.8
2018-09-21T13:03:07.416Z,30.3
2018-09-21T13:04:08.841Z,30.8
2018-09-21T13:05:10.426Z,30.8
2018-09-21T13:06:11.997Z,30.8
2018-09-21T13:07:13.528Z,30.8
2018-09-21T13:08:14.940Z,30.8
2018-09-21T13:09:16.538Z,30.3
2018-09-21T13:10:18.178Z,31.3
2018-09-21T13:11:19.785Z,31.3
2018-09-21T13:12:21.369Z,31.3
2018-09-21T13:13:22.768Z,31.3
2018-09-21T13:14:24.637Z,31.8
2018-09-21T13:15:26.327Z,30.8
2018-09-21T13:16:27.890Z,30.8
2018-09-21T13:17:29.503Z,31.3
2018-09-21T13:18:31.110Z,31.8
2018-09-21T13:19:32.550Z,31.3
2018-09-21T13:20:33.951Z,31.8
2018-09-21T13:21:35.403Z,32.3
2018-09-21T13:22:36.992Z,31.3
2018-09-21T13:23:38.574Z,31.3
2018-09-21T13:24:39.998Z,31.8
2018-09-21T13:25:41.877Z,31.8
2018-09-21T13:26:43.980Z,32.3
2018-09-21T13:27:45.678Z,31.8
2018-09-21T13:28:47.258Z,32.3
2018-09-21T13:29:48.836Z,31.8
2018-09-21T13:30:50.441Z,31.8
2018-09-21T13:31:52.040Z,31.3
2018-09-21T13:32:53.636Z,32.7
2018-09-21T13:33:55.221Z,32.3
2018-09-21T13:34:56.640Z,31.8
2018-09-21T13:35:58.071Z,31.8
2018-09-21T13:36:59.651Z,31.3
2018-09-21T13:38:01.264Z,31.8
2018-09-21T13:39:02.494Z,32.3
2018-09-21T13:40:04.073Z,31.8
2018-09-21T13:41:05.666Z,31.8